sensor_id;sensor_type;location;lat;lon;timestamp;pressure;altitude;pressure_sealevel;temperature;humidity
61035;BME280;46916;40.564;-7.958;2022-11-15T00:01:18;97320.22;;;13.91;100.00
61035;BME280;46916;40.564;-7.958;2022-11-15T00:03:37;97319.91;;;13.94;100.00
61035;BME280;46916;40.564;-7.958;2022-11-15T00:06:01;97324.34;;;13.94;100.00
61035;BME280;46916;40.564;-7.958;2022-11-15T00:08:20;97321.88;;;13.92;100.00
61035;BME280;46916;40.564;-7.958;2022-11-15T00:10:39;97313.59;;;13.87;100.00
61035;BME280;46916;40.564;-7.958;2022-11-15T00:12:58;97319.56;;;13.89;100.00
61035;BME280;46916;40.564;-7.958;2022-11-15T00:15:18;97309.31;;;13.86;100.00
61035;BME280;46916;40.564;-7.958;2022-11-15T00:17:37;97306.41;;;13.89;100.00
61035;BME280;46916;40.564;-7.958;2022-11-15T00:19:56;97305.56;;;13.88;100.00
61035;BME280;46916;40.564;-7.958;2022-11-15T00:22:15;97302.78;;;13.90;100.00
61035;BME280;46916;40.564;-7.958;2022-11-15T00:24:35;97290.38;;;13.82;100.00
61035;BME280;46916;40.564;-7.958;2022-11-15T00:26:53;97299.16;;;13.91;100.00
61035;BME280;46916;40.564;-7.958;2022-11-15T00:29:13;97303.06;;;13.87;100.00
61035;BME280;46916;40.564;-7.958;2022-11-15T00:31:32;97299.16;;;13.91;100.00
61035;BME280;46916;40.564;-7.958;2022-11-15T00:33:51;97293.38;;;13.87;100.00
61035;BME280;46916;40.564;-7.958;2022-11-15T00:36:10;97296.00;;;13.87;100.00
61035;BME280;46916;40.564;-7.958;2022-11-15T00:38:35;97289.09;;;13.86;100.00
61035;BME280;46916;40.564;-7.958;2022-11-15T00:40:55;97286.31;;;13.88;100.00
61035;BME280;46916;40.564;-7.958;2022-11-15T00:43:14;97299.00;;;13.93;100.00
61035;BME280;46916;40.564;-7.958;2022-11-15T00:45:33;97288.78;;;13.90;100.00
61035;BME280;46916;40.564;-7.958;2022-11-15T00:47:53;97296.38;;;13.93;100.00
61035;BME280;46916;40.564;-7.958;2022-11-15T00:50:12;97282.84;;;13.87;100.00
61035;BME280;46916;40.564;-7.958;2022-11-15T00:52:31;97295.69;;;13.91;100.00
61035;BME280;46916;40.564;-7.958;2022-11-15T00:54:50;97288.94;;;13.88;100.00
61035;BME280;46916;40.564;-7.958;2022-11-15T00:57:09;97287.81;;;13.91;100.00
61035;BME280;46916;40.564;-7.958;2022-11-15T00:59:28;97273.28;;;13.86;100.00
61035;BME280;46916;40.564;-7.958;2022-11-15T01:01:47;97275.63;;;13.90;100.00
61035;BME280;46916;40.564;-7.958;2022-11-15T01:04:06;97273.81;;;13.90;100.00
61035;BME280;46916;40.564;-7.958;2022-11-15T01:06:25;97264.28;;;13.89;100.00
61035;BME280;46916;40.564;-7.958;2022-11-15T01:08:44;97260.28;;;13.85;100.00
61035;BME280;46916;40.564;-7.958;2022-11-15T01:11:09;97258.19;;;13.88;100.00
61035;BME280;46916;40.564;-7.958;2022-11-15T01:13:30;97261.63;;;13.89;100.00
61035;BME280;46916;40.564;-7.958;2022-11-15T01:15:49;97268.84;;;13.87;100.00
61035;BME280;46916;40.564;-7.958;2022-11-15T01:18:08;97261.94;;;13.86;100.00
61035;BME280;46916;40.564;-7.958;2022-11-15T01:20:27;97248.41;;;13.81;100.00
61035;BME280;46916;40.564;-7.958;2022-11-15T01:22:46;97252.69;;;13.82;100.00
61035;BME280;46916;40.564;-7.958;2022-11-15T01:25:06;97258.66;;;13.84;100.00
61035;BME280;46916;40.564;-7.958;2022-11-15T01:27:24;97247.91;;;13.77;100.00
61035;BME280;46916;40.564;-7.958;2022-11-15T01:29:44;97248.06;;;13.76;100.00
61035;BME280;46916;40.564;-7.958;2022-11-15T01:32:03;97247.72;;;13.79;100.00
61035;BME280;46916;40.564;-7.958;2022-11-15T01:34:22;97243.28;;;13.79;100.00
61035;BME280;46916;40.564;-7.958;2022-11-15T01:36:41;97233.63;;;13.80;100.00
61035;BME280;46916;40.564;-7.958;2022-11-15T01:39:01;97237.22;;;13.79;100.00
61035;BME280;46916;40.564;-7.958;2022-11-15T01:41:24;97233.09;;;13.76;100.00
61035;BME280;46916;40.564;-7.958;2022-11-15T01:43:44;97223.69;;;13.74;100.00
61035;BME280;46916;40.564;-7.958;2022-11-15T01:48:32;97228.66;;;13.77;100.00
61035;BME280;46916;40.564;-7.958;2022-11-15T01:50:52;97223.38;;;13.77;100.00
61035;BME280;46916;40.564;-7.958;2022-11-15T01:53:12;97212.50;;;13.72;100.00
61035;BME280;46916;40.564;-7.958;2022-11-15T01:55:32;97216.47;;;13.76;100.00
61035;BME280;46916;40.564;-7.958;2022-11-15T01:57:55;97218.25;;;13.75;100.00
61035;BME280;46916;40.564;-7.958;2022-11-15T02:00:16;97210.38;;;13.75;100.00
61035;BME280;46916;40.564;-7.958;2022-11-15T02:02:36;97209.72;;;13.73;100.00
61035;BME280;46916;40.564;-7.958;2022-11-15T02:04:56;97201.97;;;13.72;100.00
61035;BME280;46916;40.564;-7.958;2022-11-15T02:07:17;97201.81;;;13.73;100.00
61035;BME280;46916;40.564;-7.958;2022-11-15T02:09:37;97198.34;;;13.73;100.00
61035;BME280;46916;40.564;-7.958;2022-11-15T02:11:57;97206.25;;;13.73;100.00
61035;BME280;46916;40.564;-7.958;2022-11-15T02:14:19;97201.13;;;13.71;100.00
61035;BME280;46916;40.564;-7.958;2022-11-15T02:25:00;97195.72;;;13.73;100.00
61035;BME280;46916;40.564;-7.958;2022-11-15T02:30:24;97172.03;;;13.73;100.00
61035;BME280;46916;40.564;-7.958;2022-11-15T02:33:34;97164.97;;;13.73;100.00
61035;BME280;46916;40.564;-7.958;2022-11-15T02:36:00;97160.53;;;13.74;100.00
61035;BME280;46916;40.564;-7.958;2022-11-15T02:41:15;97162.63;;;13.70;100.00
61035;BME280;46916;40.564;-7.958;2022-11-15T02:43:46;97156.09;;;13.74;100.00
61035;BME280;46916;40.564;-7.958;2022-11-15T02:46:41;97154.97;;;13.77;100.00
61035;BME280;46916;40.564;-7.958;2022-11-15T02:49:23;97155.56;;;13.71;100.00
61035;BME280;46916;40.564;-7.958;2022-11-15T02:51:45;97148.50;;;13.71;100.00
61035;BME280;46916;40.564;-7.958;2022-11-15T02:54:05;97146.72;;;13.72;100.00
61035;BME280;46916;40.564;-7.958;2022-11-15T02:56:24;97156.75;;;13.76;100.00
61035;BME280;46916;40.564;-7.958;2022-11-15T03:06:58;97144.72;;;13.74;100.00
61035;BME280;46916;40.564;-7.958;2022-11-15T03:09:36;97134.72;;;13.77;100.00
61035;BME280;46916;40.564;-7.958;2022-11-15T03:12:06;97127.81;;;13.76;100.00
61035;BME280;46916;40.564;-7.958;2022-11-15T03:14:34;97124.34;;;13.76;100.00
61035;BME280;46916;40.564;-7.958;2022-11-15T03:19:50;97107.22;;;13.72;100.00
61035;BME280;46916;40.564;-7.958;2022-11-15T03:22:12;97112.50;;;13.72;100.00
61035;BME280;46916;40.564;-7.958;2022-11-15T03:24:36;97105.44;;;13.72;100.00
61035;BME280;46916;40.564;-7.958;2022-11-15T03:26:59;97099.34;;;13.72;100.00
61035;BME280;46916;40.564;-7.958;2022-11-15T03:29:24;97095.84;;;13.71;100.00
61035;BME280;46916;40.564;-7.958;2022-11-15T03:31:48;97089.44;;;13.66;100.00
61035;BME280;46916;40.564;-7.958;2022-11-15T03:34:20;97092.56;;;13.69;100.00
61035;BME280;46916;40.564;-7.958;2022-11-15T03:36:42;97082.03;;;13.69;100.00
61035;BME280;46916;40.564;-7.958;2022-11-15T03:39:05;97087.13;;;13.71;100.00
61035;BME280;46916;40.564;-7.958;2022-11-15T03:41:57;97078.59;;;13.69;100.00
61035;BME280;46916;40.564;-7.958;2022-11-15T03:46:50;97077.09;;;13.66;100.00
61035;BME280;46916;40.564;-7.958;2022-11-15T03:49:36;97082.69;;;13.71;100.00
61035;BME280;46916;40.564;-7.958;2022-11-15T03:51:59;97079.25;;;13.71;100.00
61035;BME280;46916;40.564;-7.958;2022-11-15T03:54:22;97078.44;;;13.70;100.00
61035;BME280;46916;40.564;-7.958;2022-11-15T03:56:41;97081.88;;;13.71;100.00
61035;BME280;46916;40.564;-7.958;2022-11-15T03:59:00;97071.69;;;13.68;100.00
61035;BME280;46916;40.564;-7.958;2022-11-15T04:01:20;97065.94;;;13.72;100.00
61035;BME280;46916;40.564;-7.958;2022-11-15T04:03:39;97066.25;;;13.69;100.00
61035;BME280;46916;40.564;-7.958;2022-11-15T04:05:58;97059.34;;;13.68;100.00
61035;BME280;46916;40.564;-7.958;2022-11-15T04:08:17;97062.16;;;13.75;100.00
61035;BME280;46916;40.564;-7.958;2022-11-15T04:10:36;97059.19;;;13.70;100.00
61035;BME280;46916;40.564;-7.958;2022-11-15T04:12:55;97071.84;;;13.74;100.00
61035;BME280;46916;40.564;-7.958;2022-11-15T04:15:21;97075.47;;;13.73;100.00
61035;BME280;46916;40.564;-7.958;2022-11-15T04:17:49;97064.63;;;13.68;100.00
61035;BME280;46916;40.564;-7.958;2022-11-15T04:20:17;97066.09;;;13.71;100.00
61035;BME280;46916;40.564;-7.958;2022-11-15T04:22:57;97061.81;;;13.70;100.00
61035;BME280;46916;40.564;-7.958;2022-11-15T04:25:35;97054.06;;;13.60;100.00
61035;BME280;46916;40.564;-7.958;2022-11-15T04:27:54;97055.22;;;13.66;100.00
61035;BME280;46916;40.564;-7.958;2022-11-15T04:30:13;97066.72;;;13.65;100.00
61035;BME280;46916;40.564;-7.958;2022-11-15T04:32:32;97064.41;;;13.61;100.00
61035;BME280;46916;40.564;-7.958;2022-11-15T04:34:52;97059.16;;;13.61;100.00
61035;BME280;46916;40.564;-7.958;2022-11-15T04:37:10;97063.94;;;13.66;100.00
61035;BME280;46916;40.564;-7.958;2022-11-15T04:39:34;97054.69;;;13.62;100.00
61035;BME280;46916;40.564;-7.958;2022-11-15T04:41:53;97060.31;;;13.67;100.00
61035;BME280;46916;40.564;-7.958;2022-11-15T04:44:12;97070.84;;;13.67;100.00
61035;BME280;46916;40.564;-7.958;2022-11-15T04:46:31;97070.00;;;13.67;100.00
61035;BME280;46916;40.564;-7.958;2022-11-15T04:48:52;97076.09;;;13.67;100.00
61035;BME280;46916;40.564;-7.958;2022-11-15T04:51:11;97075.63;;;13.63;100.00
61035;BME280;46916;40.564;-7.958;2022-11-15T04:53:30;97084.16;;;13.66;100.00
61035;BME280;46916;40.564;-7.958;2022-11-15T04:55:49;97075.63;;;13.63;100.00
61035;BME280;46916;40.564;-7.958;2022-11-15T04:58:09;97069.66;;;13.61;100.00
61035;BME280;46916;40.564;-7.958;2022-11-15T05:00:29;97064.72;;;13.58;100.00
61035;BME280;46916;40.564;-7.958;2022-11-15T05:02:48;97058.81;;;13.56;100.00
61035;BME280;46916;40.564;-7.958;2022-11-15T05:05:27;97059.44;;;13.58;100.00
61035;BME280;46916;40.564;-7.958;2022-11-15T05:07:46;97053.38;;;13.58;100.00
61035;BME280;46916;40.564;-7.958;2022-11-15T05:10:06;97045.16;;;13.61;100.00
61035;BME280;46916;40.564;-7.958;2022-11-15T05:12:25;97040.22;;;13.58;100.00
61035;BME280;46916;40.564;-7.958;2022-11-15T05:14:44;97038.25;;;13.60;100.00
61035;BME280;46916;40.564;-7.958;2022-11-15T05:17:03;97035.47;;;13.61;100.00
61035;BME280;46916;40.564;-7.958;2022-11-15T05:19:23;97032.84;;;13.61;100.00
61035;BME280;46916;40.564;-7.958;2022-11-15T05:21:42;97027.22;;;13.56;100.00
61035;BME280;46916;40.564;-7.958;2022-11-15T05:24:01;97023.91;;;13.54;100.00
61035;BME280;46916;40.564;-7.958;2022-11-15T05:26:20;97021.28;;;13.54;100.00
61035;BME280;46916;40.564;-7.958;2022-11-15T05:28:40;97027.06;;;13.58;100.00
61035;BME280;46916;40.564;-7.958;2022-11-15T05:31:07;97023.91;;;13.54;100.00
61035;BME280;46916;40.564;-7.958;2022-11-15T05:33:27;97030.69;;;13.57;100.00
61035;BME280;46916;40.564;-7.958;2022-11-15T05:35:51;97031.00;;;13.54;100.00
61035;BME280;46916;40.564;-7.958;2022-11-15T05:38:14;97021.28;;;13.54;100.00
61035;BME280;46916;40.564;-7.958;2022-11-15T05:40:34;97020.78;;;13.51;100.00
61035;BME280;46916;40.564;-7.958;2022-11-15T05:42:53;97027.53;;;13.53;100.00
61035;BME280;46916;40.564;-7.958;2022-11-15T05:45:13;97023.56;;;13.49;100.00
61035;BME280;46916;40.564;-7.958;2022-11-15T05:47:33;97047.94;;;13.51;100.00
61035;BME280;46916;40.564;-7.958;2022-11-15T05:49:54;97051.38;;;13.52;100.00
61035;BME280;46916;40.564;-7.958;2022-11-15T05:52:16;97047.75;;;13.53;100.00
61035;BME280;46916;40.564;-7.958;2022-11-15T05:54:38;97040.69;;;13.53;100.00
61035;BME280;46916;40.564;-7.958;2022-11-15T05:56:58;97021.44;;;13.53;100.00
61035;BME280;46916;40.564;-7.958;2022-11-15T05:59:18;97021.97;;;13.56;100.00
61035;BME280;46916;40.564;-7.958;2022-11-15T06:01:38;97007.66;;;13.59;100.00
61035;BME280;46916;40.564;-7.958;2022-11-15T06:03:58;97004.53;;;13.55;100.00
61035;BME280;46916;40.564;-7.958;2022-11-15T06:06:18;96995.66;;;13.56;100.00
61035;BME280;46916;40.564;-7.958;2022-11-15T06:08:37;96983.81;;;13.52;100.00
61035;BME280;46916;40.564;-7.958;2022-11-15T06:10:56;96980.00;;;13.55;100.00
61035;BME280;46916;40.564;-7.958;2022-11-15T06:13:15;96981.31;;;13.51;100.00
61035;BME280;46916;40.564;-7.958;2022-11-15T06:15:35;96978.22;;;13.55;100.00
61035;BME280;46916;40.564;-7.958;2022-11-15T06:17:57;96983.50;;;13.55;100.00
61035;BME280;46916;40.564;-7.958;2022-11-15T06:20:16;96989.88;;;13.53;100.00
61035;BME280;46916;40.564;-7.958;2022-11-15T06:22:35;96989.72;;;13.54;100.00
61035;BME280;46916;40.564;-7.958;2022-11-15T06:24:54;96982.84;;;13.61;100.00
61035;BME280;46916;40.564;-7.958;2022-11-15T06:27:13;96978.56;;;13.60;100.00
61035;BME280;46916;40.564;-7.958;2022-11-15T06:29:32;96964.56;;;13.52;100.00
61035;BME280;46916;40.564;-7.958;2022-11-15T06:31:51;96967.72;;;13.55;100.00
61035;BME280;46916;40.564;-7.958;2022-11-15T06:34:11;96964.09;;;13.56;100.00
61035;BME280;46916;40.564;-7.958;2022-11-15T06:36:30;96969.47;;;13.55;100.00
61035;BME280;46916;40.564;-7.958;2022-11-15T06:38:50;96974.59;;;13.56;100.00
61035;BME280;46916;40.564;-7.958;2022-11-15T06:41:11;96974.28;;;13.51;100.00
61035;BME280;46916;40.564;-7.958;2022-11-15T06:43:31;96977.53;;;13.53;100.00
61035;BME280;46916;40.564;-7.958;2022-11-15T06:45:50;96958.94;;;13.47;100.00
61035;BME280;46916;40.564;-7.958;2022-11-15T06:48:10;96966.03;;;13.54;100.00
61035;BME280;46916;40.564;-7.958;2022-11-15T06:50:29;96959.47;;;13.58;100.00
61035;BME280;46916;40.564;-7.958;2022-11-15T06:52:49;96952.06;;;13.54;100.00
61035;BME280;46916;40.564;-7.958;2022-11-15T06:55:08;96957.19;;;13.55;100.00
61035;BME280;46916;40.564;-7.958;2022-11-15T06:57:27;96953.56;;;13.56;100.00
61035;BME280;46916;40.564;-7.958;2022-11-15T06:59:46;96962.75;;;13.52;100.00
61035;BME280;46916;40.564;-7.958;2022-11-15T07:02:10;96954.22;;;13.58;100.00
61035;BME280;46916;40.564;-7.958;2022-11-15T07:04:30;96944.84;;;13.56;100.00
61035;BME280;46916;40.564;-7.958;2022-11-15T07:06:49;96932.81;;;13.53;100.00
61035;BME280;46916;40.564;-7.958;2022-11-15T07:09:08;96935.44;;;13.53;100.00
61035;BME280;46916;40.564;-7.958;2022-11-15T07:11:27;96948.81;;;13.60;100.00
61035;BME280;46916;40.564;-7.958;2022-11-15T07:13:46;96947.97;;;13.59;100.00
61035;BME280;46916;40.564;-7.958;2022-11-15T07:16:08;96954.72;;;13.62;100.00
61035;BME280;46916;40.564;-7.958;2022-11-15T07:18:27;96943.69;;;13.58;100.00
61035;BME280;46916;40.564;-7.958;2022-11-15T07:20:47;96936.78;;;13.57;100.00
61035;BME280;46916;40.564;-7.958;2022-11-15T07:23:06;96944.88;;;13.64;100.00
61035;BME280;46916;40.564;-7.958;2022-11-15T07:25:26;96930.91;;;13.63;100.00
61035;BME280;46916;40.564;-7.958;2022-11-15T07:27:54;96923.31;;;13.60;100.00
61035;BME280;46916;40.564;-7.958;2022-11-15T07:30:13;96917.38;;;13.67;100.00
61035;BME280;46916;40.564;-7.958;2022-11-15T07:32:32;96939.25;;;13.67;100.00
61035;BME280;46916;40.564;-7.958;2022-11-15T07:34:52;96946.69;;;13.72;100.00
61035;BME280;46916;40.564;-7.958;2022-11-15T07:37:11;96940.56;;;13.63;100.00
61035;BME280;46916;40.564;-7.958;2022-11-15T07:39:30;96957.53;;;13.69;100.00
61035;BME280;46916;40.564;-7.958;2022-11-15T07:41:50;96947.84;;;13.69;100.00
61035;BME280;46916;40.564;-7.958;2022-11-15T07:44:29;96917.38;;;13.58;100.00
61035;BME280;46916;40.564;-7.958;2022-11-15T07:46:48;96943.38;;;13.70;100.00
61035;BME280;46916;40.564;-7.958;2022-11-15T07:49:08;96933.53;;;13.63;100.00
61035;BME280;46916;40.564;-7.958;2022-11-15T07:51:27;96942.88;;;13.66;100.00
61035;BME280;46916;40.564;-7.958;2022-11-15T07:53:46;96940.56;;;13.63;100.00
61035;BME280;46916;40.564;-7.958;2022-11-15T07:56:06;96922.00;;;13.56;100.00
61035;BME280;46916;40.564;-7.958;2022-11-15T07:58:26;96938.78;;;13.63;100.00
61035;BME280;46916;40.564;-7.958;2022-11-15T08:00:45;96956.34;;;13.63;100.00
61035;BME280;46916;40.564;-7.958;2022-11-15T08:03:07;96940.09;;;13.59;100.00
61035;BME280;46916;40.564;-7.958;2022-11-15T08:05:26;96929.56;;;13.59;100.00
61035;BME280;46916;40.564;-7.958;2022-11-15T08:07:45;96936.59;;;13.59;100.00
61035;BME280;46916;40.564;-7.958;2022-11-15T08:10:05;96924.63;;;13.65;100.00
61035;BME280;46916;40.564;-7.958;2022-11-15T08:12:29;96930.53;;;13.67;100.00
61035;BME280;46916;40.564;-7.958;2022-11-15T08:14:49;96937.47;;;13.68;100.00
61035;BME280;46916;40.564;-7.958;2022-11-15T08:17:07;96930.06;;;13.71;100.00
61035;BME280;46916;40.564;-7.958;2022-11-15T08:19:26;96921.00;;;13.66;100.00
61035;BME280;46916;40.564;-7.958;2022-11-15T08:21:46;96928.09;;;13.65;100.00
61035;BME280;46916;40.564;-7.958;2022-11-15T08:24:05;96919.06;;;13.68;100.00
61035;BME280;46916;40.564;-7.958;2022-11-15T08:26:24;96913.28;;;13.64;100.00
61035;BME280;46916;40.564;-7.958;2022-11-15T08:28:47;96901.47;;;13.68;100.00
61035;BME280;46916;40.564;-7.958;2022-11-15T08:31:16;96905.25;;;13.74;100.00
61035;BME280;46916;40.564;-7.958;2022-11-15T08:33:36;96923.50;;;13.75;100.00
61035;BME280;46916;40.564;-7.958;2022-11-15T08:35:59;96905.75;;;13.77;100.00
61035;BME280;46916;40.564;-7.958;2022-11-15T08:38:19;96906.25;;;13.81;100.00
61035;BME280;46916;40.564;-7.958;2022-11-15T08:40:38;96921.88;;;13.82;100.00
61035;BME280;46916;40.564;-7.958;2022-11-15T08:42:57;96924.00;;;13.87;100.00
61035;BME280;46916;40.564;-7.958;2022-11-15T08:45:17;96924.00;;;13.87;100.00
61035;BME280;46916;40.564;-7.958;2022-11-15T08:47:37;96919.56;;;13.87;100.00
61035;BME280;46916;40.564;-7.958;2022-11-15T08:49:55;96907.88;;;13.82;100.00
61035;BME280;46916;40.564;-7.958;2022-11-15T08:52:15;96927.63;;;13.86;100.00
61035;BME280;46916;40.564;-7.958;2022-11-15T08:54:34;96913.81;;;13.84;100.00
61035;BME280;46916;40.564;-7.958;2022-11-15T08:56:54;96917.41;;;13.83;100.00
61035;BME280;46916;40.564;-7.958;2022-11-15T08:59:22;96919.41;;;13.89;100.00
61035;BME280;46916;40.564;-7.958;2022-11-15T09:01:51;96922.38;;;13.86;100.00
61035;BME280;46916;40.564;-7.958;2022-11-15T09:04:11;96918.41;;;13.82;100.00
61035;BME280;46916;40.564;-7.958;2022-11-15T09:06:44;96929.63;;;13.92;100.00
61035;BME280;46916;40.564;-7.958;2022-11-15T09:09:17;96922.03;;;13.89;100.00
61035;BME280;46916;40.564;-7.958;2022-11-15T09:11:42;96914.78;;;13.91;100.00
61035;BME280;46916;40.564;-7.958;2022-11-15T09:14:01;96919.25;;;13.91;100.00
61035;BME280;46916;40.564;-7.958;2022-11-15T09:16:23;96902.63;;;13.90;100.00
61035;BME280;46916;40.564;-7.958;2022-11-15T09:18:47;96890.47;;;13.89;100.00
61035;BME280;46916;40.564;-7.958;2022-11-15T09:21:10;96905.94;;;13.92;100.00
61035;BME280;46916;40.564;-7.958;2022-11-15T09:23:30;96906.75;;;13.93;100.00
61035;BME280;46916;40.564;-7.958;2022-11-15T09:25:57;96894.91;;;13.88;100.00
61035;BME280;46916;40.564;-7.958;2022-11-15T09:28:23;96906.56;;;13.94;100.00
61035;BME280;46916;40.564;-7.958;2022-11-15T09:30:50;96889.16;;;13.93;100.00
61035;BME280;46916;40.564;-7.958;2022-11-15T09:33:12;96905.59;;;13.95;100.00
61035;BME280;46916;40.564;-7.958;2022-11-15T09:35:32;96888.16;;;13.94;100.00
61035;BME280;46916;40.564;-7.958;2022-11-15T09:37:51;96895.06;;;13.95;100.00
61035;BME280;46916;40.564;-7.958;2022-11-15T09:40:12;96896.88;;;13.95;100.00
61035;BME280;46916;40.564;-7.958;2022-11-15T09:42:46;96891.28;;;13.98;100.00
61035;BME280;46916;40.564;-7.958;2022-11-15T09:45:50;96899.00;;;13.99;100.00
61035;BME280;46916;40.564;-7.958;2022-11-15T09:51:04;96880.56;;;13.99;100.00
61035;BME280;46916;40.564;-7.958;2022-11-15T09:53:19;96870.41;;;13.96;100.00
61035;BME280;46916;40.564;-7.958;2022-11-15T09:55:47;96847.34;;;14.06;100.00
61035;BME280;46916;40.564;-7.958;2022-11-15T10:00:47;96847.66;;;14.03;100.00
61035;BME280;46916;40.564;-7.958;2022-11-15T10:03:09;96838.81;;;14.04;100.00
61035;BME280;46916;40.564;-7.958;2022-11-15T10:05:15;96835.50;;;14.02;100.00
61035;BME280;46916;40.564;-7.958;2022-11-15T10:11:51;96844.72;;;14.06;100.00
61035;BME280;46916;40.564;-7.958;2022-11-15T10:13:56;96828.59;;;14.09;100.00
61035;BME280;46916;40.564;-7.958;2022-11-15T10:16:09;96827.91;;;14.07;100.00
61035;BME280;46916;40.564;-7.958;2022-11-15T10:22:30;96836.31;;;14.11;100.00
61035;BME280;46916;40.564;-7.958;2022-11-15T10:24:44;96834.16;;;14.15;100.00
61035;BME280;46916;40.564;-7.958;2022-11-15T10:26:48;96839.75;;;14.11;100.00
61035;BME280;46916;40.564;-7.958;2022-11-15T10:28:53;96852.59;;;14.15;100.00
61035;BME280;46916;40.564;-7.958;2022-11-15T10:30:58;96833.16;;;14.16;100.00
61035;BME280;46916;40.564;-7.958;2022-11-15T10:33:33;96832.03;;;14.18;100.00
61035;BME280;46916;40.564;-7.958;2022-11-15T10:35:36;96826.59;;;14.20;100.00
61035;BME280;46916;40.564;-7.958;2022-11-15T10:37:37;96835.47;;;14.19;100.00
61035;BME280;46916;40.564;-7.958;2022-11-15T10:39:38;96840.41;;;14.22;100.00
61035;BME280;46916;40.564;-7.958;2022-11-15T10:41:41;96866.91;;;14.20;100.00
61035;BME280;46916;40.564;-7.958;2022-11-15T10:43:43;96901.31;;;14.19;100.00
61035;BME280;46916;40.564;-7.958;2022-11-15T10:45:45;96933.75;;;14.19;100.00
61035;BME280;46916;40.564;-7.958;2022-11-15T10:47:46;96929.66;;;14.17;100.00
61035;BME280;46916;40.564;-7.958;2022-11-15T10:50:26;96903.31;;;14.17;100.00
61035;BME280;46916;40.564;-7.958;2022-11-15T10:52:18;96912.03;;;14.17;100.00
61035;BME280;46916;40.564;-7.958;2022-11-15T10:54:33;96908.56;;;14.17;100.00
61035;BME280;46916;40.564;-7.958;2022-11-15T10:56:48;96918.13;;;14.18;100.00
61035;BME280;46916;40.564;-7.958;2022-11-15T10:59:01;96910.72;;;14.21;100.00
61035;BME280;46916;40.564;-7.958;2022-11-15T11:01:28;96888.47;;;14.24;100.00
61035;BME280;46916;40.564;-7.958;2022-11-15T11:03:44;96901.31;;;14.27;100.00
61035;BME280;46916;40.564;-7.958;2022-11-15T11:05:45;96903.44;;;14.31;100.00
61035;BME280;46916;40.564;-7.958;2022-11-15T11:07:56;96902.31;;;14.34;100.00
61035;BME280;46916;40.564;-7.958;2022-11-15T11:10:16;96906.25;;;14.38;100.00
61035;BME280;46916;40.564;-7.958;2022-11-15T11:12:30;96896.34;;;14.40;100.00
61035;BME280;46916;40.564;-7.958;2022-11-15T11:14:36;96891.75;;;14.42;100.00
61035;BME280;46916;40.564;-7.958;2022-11-15T11:21:41;96888.63;;;14.47;100.00
61035;BME280;46916;40.564;-7.958;2022-11-15T11:25:56;96889.16;;;14.50;100.00
61035;BME280;46916;40.564;-7.958;2022-11-15T11:30:36;96872.16;;;14.53;100.00
61035;BME280;46916;40.564;-7.958;2022-11-15T11:34:58;96891.91;;;14.57;100.00
61035;BME280;46916;40.564;-7.958;2022-11-15T11:37:14;96885.69;;;14.58;100.00
61035;BME280;46916;40.564;-7.958;2022-11-15T11:39:28;96871.50;;;14.59;100.00
61035;BME280;46916;40.564;-7.958;2022-11-15T11:41:59;96863.59;;;14.59;100.00
61035;BME280;46916;40.564;-7.958;2022-11-15T11:44:37;96879.06;;;14.62;100.00
61035;BME280;46916;40.564;-7.958;2022-11-15T11:48:58;96887.47;;;14.66;100.00
61035;BME280;46916;40.564;-7.958;2022-11-15T11:51:17;96875.94;;;14.67;100.00
61035;BME280;46916;40.564;-7.958;2022-11-15T11:53:32;96872.28;;;14.68;100.00
61035;BME280;46916;40.564;-7.958;2022-11-15T11:55:43;96870.78;;;14.73;100.00
61035;BME280;46916;40.564;-7.958;2022-11-15T12:00:22;96871.47;;;14.75;100.00
61035;BME280;46916;40.564;-7.958;2022-11-15T12:02:34;96867.00;;;14.76;100.00
61035;BME280;46916;40.564;-7.958;2022-11-15T12:04:40;96872.28;;;14.76;100.00
61035;BME280;46916;40.564;-7.958;2022-11-15T12:07:12;96865.50;;;14.73;100.00
61035;BME280;46916;40.564;-7.958;2022-11-15T12:09:37;96872.13;;;14.69;100.00
61035;BME280;46916;40.564;-7.958;2022-11-15T12:12:09;96858.31;;;14.67;100.00
61035;BME280;46916;40.564;-7.958;2022-11-15T12:16:42;96857.63;;;14.65;100.00
61035;BME280;46916;40.564;-7.958;2022-11-15T12:18:50;96861.94;;;14.66;100.00
61035;BME280;46916;40.564;-7.958;2022-11-15T12:20:58;96865.22;;;14.68;100.00
61035;BME280;46916;40.564;-7.958;2022-11-15T12:25:25;96886.78;;;14.72;100.00
61035;BME280;46916;40.564;-7.958;2022-11-15T12:27:46;96873.44;;;14.73;100.00
61035;BME280;46916;40.564;-7.958;2022-11-15T12:29:51;96876.06;;;14.73;100.00
61035;BME280;46916;40.564;-7.958;2022-11-15T12:31:55;96884.81;;;14.74;100.00
61035;BME280;46916;40.564;-7.958;2022-11-15T12:33:58;96881.19;;;14.75;100.00
61035;BME280;46916;40.564;-7.958;2022-11-15T12:36:04;96878.38;;;14.76;100.00
61035;BME280;46916;40.564;-7.958;2022-11-15T12:38:08;96878.22;;;14.78;100.00
61035;BME280;46916;40.564;-7.958;2022-11-15T12:55:31;96888.56;;;14.88;100.00
61035;BME280;46916;40.564;-7.958;2022-11-15T12:57:36;96891.00;;;14.89;100.00
61035;BME280;46916;40.564;-7.958;2022-11-15T12:59:58;96889.19;;;14.90;100.00
61035;BME280;46916;40.564;-7.958;2022-11-15T13:02:01;96891.00;;;14.89;100.00
61035;BME280;46916;40.564;-7.958;2022-11-15T13:04:26;96888.22;;;14.91;100.00
61035;BME280;46916;40.564;-7.958;2022-11-15T13:08:57;96880.31;;;14.91;100.00
61035;BME280;46916;40.564;-7.958;2022-11-15T13:11:41;96882.28;;;14.89;100.00
61035;BME280;46916;40.564;-7.958;2022-11-15T13:13:44;96897.28;;;14.88;100.00
61035;BME280;46916;40.564;-7.958;2022-11-15T13:15:51;96898.28;;;14.87;100.00
61035;BME280;46916;40.564;-7.958;2022-11-15T13:17:55;96902.56;;;14.88;100.00
61035;BME280;46916;40.564;-7.958;2022-11-15T13:22:04;96893.66;;;14.89;100.00
61035;BME280;46916;40.564;-7.958;2022-11-15T13:24:24;96900.59;;;14.90;100.00
61035;BME280;46916;40.564;-7.958;2022-11-15T13:26:24;96888.38;;;14.89;100.00